x

South Brooks (46132) Wave Buoy

7:00am - Thu 2nd Oct 2014 All times are PDT. -7 hours from GMT.

  • Sig Wave height 5.6ft
  • Peak Period 11s
  • Wind
    11mph, 16mph gusts
  • Sea Temp 58°f
  • Air Temp 56°f
  • Sea Pressure 1022.3mb
  • South Brooks
  • South Brooks

More Historic Weather Station data

Upgrade to MSW Pro to gain access to the past 30 days of data for over 8000 Wavebouys and Weather Stations around the globe.

Join Pro

Comparision Forecast

View Surf forecast
   
Thu 10/02 7:00am 5.5ft 11s 11 16 mph 1022.3mb 58f 56f
6:00am 5ft 10s 11 13 mph 1022.2mb 57f 56f
5:00am 5ft 10s 11 13 mph 1022.3mb 57f 56f
4:00am 5ft 11s 13 16 mph 1022.2mb 58f 56f
3:00am 5ft 10s 9 11 mph 1022.5mb 59f 56f
2:00am 5ft 11s 9 11 mph 1022.4mb 59f 57f
1:00am 5.5ft 11s 9 11 mph 1022.3mb 59f 57f
12:00am 5ft 11s 9 13 mph 1022.5mb 59f 57f
Wed 10/01 11:00pm 5ft 10s 7 9 mph 1022.9mb 60f 58f
10:00pm 5ft 11s 4 7 mph 1022.9mb 61f 58f
9:00pm 5.5ft 11s 4
mph
1022.3mb 61f 59f
8:00pm 5ft 10s 4
mph
1022.4mb 60f 58f
7:00pm 5ft 10s 2 4 mph 1022.3mb 60f 58f
6:00pm 5.5ft 8s 2 4 mph 1022.2mb 59f 59f
5:00pm 5ft 10s 2 4 mph 1022.1mb 59f 60f
4:00pm 5ft 10s 4
mph
1022.5mb 61f 60f
3:00pm 5ft 10s 7 9 mph 1022.5mb 62f 59f
2:00pm 5.5ft 8s 4 7 mph 1022.7mb 61f 59f
1:00pm 5ft 10s 7 9 mph 1023mb 61f 58f
12:00pm 5ft 9s 9 11 mph 1023mb 61f 57f
11:00am 5ft 8s 4 7 mph 1022.8mb 61f 59f
10:00am 4.5ft 9s 4 7 mph 1022.8mb 61f 59f
9:00am 5ft 9s 2 4 mph 1022.9mb 61f 59f
8:00am 4.5ft 10s 4
mph
1022.7mb 61f 58f
7:00am 5ft 8s 2 4 mph 1022.9mb 61f 58f
6:00am 5ft 9s 2 4 mph 1022.8mb 61f 58f
5:00am 5ft 10s 4
mph
1022.4mb 61f 58f
4:00am 5ft 10s 7
mph
1022.8mb 61f 58f
3:00am 5.5ft 10s 7 9 mph 1023mb 61f 58f
2:00am 5.5ft 10s 4 7 mph 1022.9mb 62f 58f
1:00am 5.5ft 10s 7 9 mph 1022.8mb 62f 58f
12:00am 6ft 10s 9
mph
1022.9mb 62f 58f
Tue 09/30 11:00pm 6.5ft 10s 11 13 mph 1022.5mb 62f 58f
10:00pm 6ft 9s 13
mph
1022.3mb 62f 58f
9:00pm 6.5ft 9s 13 16 mph 1022.2mb 62f 58f
8:00pm 7ft 8s 11 13 mph 1021.9mb 62f 58f
7:00pm 7ft 10s 11 16 mph 1021.5mb 62f 59f
6:00pm 7ft 10s 13 16 mph 1021.3mb 61f 59f
5:00pm 7ft 10s 11 13 mph 1021.4mb 60f 59f
3:00pm 7.5ft 11s 13 16 mph 1021.1mb 60f 60f
2:00pm 7ft 10s 13 16 mph 1021.1mb 60f 59f
1:00pm 8ft 11s 13 16 mph 1020.9mb 60f 59f
12:00pm 8.5ft 11s 9 11 mph 1020.7mb 60f 58f
11:00am 8ft 11s 11 13 mph 1020.1mb 59f 58f
10:00am 8ft 12s 16 20 mph 1019.3mb 59f 59f
9:00am 9.5ft 11s 13 16 mph 1018.8mb 59f 60f
7:00am 11ft 11s 13 16 mph 1017.8mb 59f 58f
6:00am 11ft 10s 13 16 mph 1017.2mb 59f 58f
5:00am 9.5ft 11s 18 22 mph 1016.6mb 60f 60f
4:00am 11.5ft 11s 13 16 mph 1016.4mb 60f 59f
3:00am 9ft 10s 13 18 mph 1016mb 60f 60f
2:00am 9.5ft 11s 16 20 mph 1015.6mb 60f 60f
1:00am 9ft 11s 18 22 mph 1015.3mb 60f 60f
12:00am 9ft 11s 13 18 mph 1015mb 60f 60f
Mon 09/29 11:00pm 8.5ft 11s 16 18 mph 1014.8mb 60f 60f
10:00pm 8ft 11s 16 20 mph 1014.5mb 60f 60f
9:00pm 8ft 10s 16 20 mph 1013.8mb 60f 60f
8:00pm 7ft 10s 20 27 mph 1013.2mb 60f 60f
7:00pm 7ft 8s 18 20 mph 1012.8mb 60f 59f
6:00pm 7.5ft 9s 16 20 mph 1012.5mb 60f 60f
5:00pm 8ft 9s 13 18 mph 1012.3mb 60f 60f
4:00pm 8ft 10s 13 18 mph 1012.2mb 60f 60f
3:00pm 8ft 10s 16 18 mph 1012.1mb 60f 60f
2:00pm 7.5ft 10s 13 18 mph 1012.1mb 60f 61f
1:00pm 7ft 10s 13 18 mph 1012.1mb 60f 60f
12:00pm 7ft 11s 9 13 mph 1012.1mb 60f 60f
11:00am 8ft 10s 11 13 mph 1011.9mb 60f 60f
10:00am 7.5ft 10s 11 16 mph 1011.5mb 60f 61f
9:00am 7ft 10s 9 13 mph 1011.2mb 60f 60f
8:00am 7ft 11s 7 9 mph 1010.8mb 60f 59f
7:00am 7.5ft 11s 9 11 mph 1010.5mb 59f 58f
6:00am 7ft 10s 13 18 mph 1010mb 60f 58f
5:00am 7ft 11s 18 22 mph 1009.5mb 60f 58f
4:00am 8.5ft 11s 11 16 mph 1009.3mb 60f 60f
3:00am 8.5ft 12s 2 4 mph 1009.8mb 60f 59f
2:00am 8ft 10s 7 9 mph 1010.1mb 60f 59f
1:00am 8ft 10s 11 18 mph 1010.3mb 61f 61f
12:00am 8ft 10s 9 13 mph 1011mb 61f 61f
Sun 09/28 11:00pm 7.5ft 10s 9 11 mph 1011.7mb 61f 61f
10:00pm 7ft 8s 11 13 mph 1012mb 61f 61f
9:00pm 7ft 9s 11 13 mph 1012.3mb 61f 60f
8:00pm 6.5ft 8s 11 13 mph 1012.5mb 61f 60f
7:00pm 5.5ft 9s 11 13 mph 1012.4mb 61f 60f
6:00pm 5ft 8s 11 13 mph 1013.2mb 61f 60f
5:00pm 5ft 8s 13 16 mph 1013.9mb 61f 60f
4:00pm 5ft 8s 13 18 mph 1013.7mb 61f 60f